Time;durP1;ratioP1;P1;durP2;ratioP2;P2;SDS_P1;SDS_P2;PMS_P1;PMS_P2;Temp;Humidity;BMP_temperature;BMP_pressure;BME280_temperature;BME280_humidity;BME280_pressure;Samples;Min_cycle;Max_cycle;Signal;HPM_P1;HPM_P2
2022/10/20 00:02:07;;;;;;;5.60;3.53;;;;;;;-143.85;100.00;70650.75;5107384;28;20024;-86
2022/10/20 00:04:33;;;;;;;7.00;4.13;;;;;;;-143.85;100.00;70650.75;5100142;28;20515;-87
2022/10/20 00:06:58;;;;;;;6.15;4.07;;;;;;;-143.85;100.00;70650.75;5094537;28;20441;-87
2022/10/20 00:09:26;;;;;;;9.13;3.75;;;;;;;-143.85;100.00;70650.75;5113536;28;20489;-87
2022/10/20 00:11:52;;;;;;;8.38;4.18;;;;;;;-143.85;100.00;70650.75;5114167;28;20058;-87
2022/10/20 00:14:17;;;;;;;6.50;3.80;;;;;;;-143.85;100.00;70650.75;5114417;28;20122;-87
2022/10/20 00:16:43;;;;;;;7.03;3.85;;;;;;;-143.85;100.00;70650.75;5114619;28;20055;-87
2022/10/20 00:19:08;;;;;;;7.07;3.85;;;;;;;-143.85;100.00;70650.75;5099917;28;20032;-86
2022/10/20 00:21:34;;;;;;;8.55;4.10;;;;;;;-143.85;100.00;70650.75;5105249;28;20110;-85
2022/10/20 00:24:00;;;;;;;7.90;4.82;;;;;;;-143.85;100.00;70650.75;5105907;28;20079;-86
2022/10/20 00:26:27;;;;;;;7.18;4.05;;;;;;;-143.85;100.00;70650.75;5115265;28;20055;-86
2022/10/20 00:28:53;;;;;;;14.02;3.85;;;;;;;-143.85;100.00;70650.75;5114184;28;20027;-85
2022/10/20 00:31:20;;;;;;;7.05;4.38;;;;;;;-143.85;100.00;70650.75;5099562;28;20024;-86
2022/10/20 00:33:46;;;;;;;6.93;3.90;;;;;;;-143.85;100.00;70650.75;5103902;28;20028;-85
2022/10/20 00:36:14;;;;;;;5.43;3.45;;;;;;;-143.85;100.00;70650.75;5106133;28;20347;-83
2022/10/20 00:38:40;;;;;;;5.70;3.38;;;;;;;-143.85;100.00;70650.75;5098296;28;20035;-83
2022/10/20 00:41:06;;;;;;;8.60;4.65;;;;;;;-143.85;100.00;70650.75;5113546;28;20028;-82
2022/10/20 00:43:46;;;;;;;17.45;5.25;;;;;;;-143.85;100.00;70650.75;5114348;28;20032;-84
2022/10/20 00:46:18;;;;;;;7.05;4.13;;;;;;;-143.85;100.00;70650.75;5113414;28;20050;-86
2022/10/20 00:48:47;;;;;;;10.43;4.30;;;;;;;-143.85;100.00;70650.75;5111412;28;20472;-87
2022/10/20 00:51:16;;;;;;;7.13;4.15;;;;;;;-143.85;100.00;70650.75;5102873;28;20092;-86
2022/10/20 00:53:44;;;;;;;6.75;4.25;;;;;;;-143.85;100.00;70650.75;5111861;28;20020;-86
2022/10/20 00:56:10;;;;;;;5.97;3.53;;;;;;;-143.85;100.00;70650.75;5093227;28;20070;-87
2022/10/20 00:58:36;;;;;;;7.68;5.68;;;;;;;-143.85;100.00;70650.75;5093051;28;20059;-86
2022/10/20 01:01:01;;;;;;;6.70;3.72;;;;;;;-143.85;100.00;70650.75;5096083;28;20096;-85
2022/10/20 01:03:34;;;;;;;8.70;4.57;;;;;;;-143.85;100.00;70650.75;5093006;28;20024;-86
2022/10/20 01:05:59;;;;;;;8.25;4.93;;;;;;;-143.85;100.00;70650.75;5113995;28;20075;-84
2022/10/20 01:08:25;;;;;;;7.30;4.20;;;;;;;-143.85;100.00;70650.75;5102037;28;20376;-86
2022/10/20 01:11:05;;;;;;;7.60;4.90;;;;;;;-143.85;100.00;70650.75;5110129;28;20066;-85
2022/10/20 01:14:09;;;;;;;6.63;3.55;;;;;;;-143.85;100.00;70650.75;5113087;28;20030;-83
2022/10/20 01:16:53;;;;;;;6.38;4.80;;;;;;;-143.85;100.00;70650.75;5082307;28;20035;-84
2022/10/20 01:19:51;;;;;;;6.57;4.40;;;;;;;-143.85;100.00;70650.75;5095444;28;20028;-87
2022/10/20 01:22:27;;;;;;;;;;;;;;;-143.85;100.00;70650.75;5086769;28;20044;-86
2022/10/20 01:25:01;;;;;;;7.25;4.60;;;;;;;-143.85;100.00;70650.75;5092424;28;19928;-84
2022/10/20 01:27:31;;;;;;;5.68;4.00;;;;;;;-143.85;100.00;70650.75;5093106;28;20376;-84
2022/10/20 01:30:18;;;;;;;8.30;4.90;;;;;;;-143.85;100.00;70650.75;5098682;28;20097;-84
2022/10/20 01:33:08;;;;;;;8.53;4.77;;;;;;;-143.85;100.00;70650.75;5110957;28;20027;-84
2022/10/20 01:35:51;;;;;;;12.63;5.00;;;;;;;-143.85;100.00;70650.75;5091564;28;20032;-84
2022/10/20 01:38:34;;;;;;;8.30;4.47;;;;;;;-143.85;100.00;70650.75;5097144;28;20020;-83
2022/10/20 01:41:16;;;;;;;10.15;5.28;;;;;;;-143.85;100.00;70650.75;5112817;28;20024;-85
2022/10/20 01:43:44;;;;;;;8.25;4.38;;;;;;;-143.85;100.00;70650.75;5108830;28;20031;-85
2022/10/20 01:46:11;;;;;;;4.95;4.03;;;;;;;-143.85;100.00;70650.75;5102128;28;20038;-84
2022/10/20 01:48:39;;;;;;;8.35;4.55;;;;;;;-143.85;100.00;70650.75;5112246;28;20035;-85
2022/10/20 01:51:05;;;;;;;6.85;4.55;;;;;;;-143.85;100.00;70650.75;5112613;28;20055;-84
2022/10/20 01:53:31;;;;;;;12.35;5.03;;;;;;;-143.85;100.00;70650.75;5107310;28;20044;-86
2022/10/20 01:55:58;;;;;;;8.25;4.53;;;;;;;-143.85;100.00;70650.75;5096034;28;20081;-86
2022/10/20 01:58:34;;;;;;;12.80;5.63;;;;;;;-143.85;100.00;70650.75;5105324;28;20028;-86
2022/10/20 02:01:26;;;;;;;17.63;5.88;;;;;;;-143.85;100.00;70650.75;5098337;28;20028;-87
2022/10/20 02:03:58;;;;;;;9.77;4.57;;;;;;;-143.85;100.00;70650.75;5095628;28;20107;-87
2022/10/20 02:06:31;;;;;;;11.77;4.70;;;;;;;-143.85;100.00;70650.75;5112582;28;20020;-86
2022/10/20 02:09:00;;;;;;;7.38;4.55;;;;;;;-143.85;100.00;70650.75;5112234;28;20111;-85
2022/10/20 02:11:29;;;;;;;9.35;5.15;;;;;;;-143.85;100.00;70650.75;5112510;28;20039;-86
2022/10/20 02:13:56;;;;;;;9.93;5.68;;;;;;;-143.85;100.00;70650.75;5097814;28;20020;-87
2022/10/20 02:16:46;;;;;;;8.02;4.93;;;;;;;-143.85;100.00;70650.75;5098726;28;20031;-86
2022/10/20 02:19:15;;;;;;;10.98;5.13;;;;;;;-143.85;100.00;70650.75;5100542;28;20411;-85
2022/10/20 02:21:41;;;;;;;7.85;5.18;;;;;;;-143.85;100.00;70650.75;5112218;28;20084;-83
2022/10/20 02:24:08;;;;;;;7.50;4.47;;;;;;;-143.85;100.00;70650.75;5112016;28;20027;-86
2022/10/20 02:26:36;;;;;;;8.45;4.55;;;;;;;-143.85;100.00;70650.75;5112138;28;20519;-85
2022/10/20 02:29:13;;;;;;;8.43;4.70;;;;;;;-143.85;100.00;70650.75;5112282;28;20043;-86
2022/10/20 02:31:39;;;;;;;7.93;4.72;;;;;;;-143.85;100.00;70650.75;5104764;28;20028;-84
2022/10/20 02:34:06;;;;;;;6.32;4.20;;;;;;;-143.85;100.00;70650.75;5099335;28;20035;-84
2022/10/20 02:36:38;;;;;;;7.60;4.47;;;;;;;-143.85;100.00;70650.75;5110704;28;20107;-86
2022/10/20 02:39:04;;;;;;;11.32;5.60;;;;;;;-143.85;100.00;70650.75;5112179;28;20031;-85
2022/10/20 02:41:30;;;;;;;8.90;4.38;;;;;;;-143.85;100.00;70650.75;5112187;28;20155;-85
2022/10/20 02:43:56;;;;;;;7.10;4.32;;;;;;;-143.85;100.00;70650.75;5111498;28;20028;-84
2022/10/20 02:46:21;;;;;;;13.85;4.88;;;;;;;-143.85;100.00;70650.75;5112053;28;20043;-86
2022/10/20 02:48:47;;;;;;;6.10;3.90;;;;;;;-143.85;100.00;70650.75;5101904;28;20479;-86
2022/10/20 02:51:12;;;;;;;7.18;4.70;;;;;;;-143.85;100.00;70650.75;5117506;28;20023;-84
2022/10/20 02:53:38;;;;;;;7.57;4.68;;;;;;;-143.85;100.00;70650.75;5127652;28;20108;-85
2022/10/20 02:56:04;;;;;;;6.30;4.30;;;;;;;-143.85;100.00;70650.75;5113603;28;20448;-86
2022/10/20 02:58:29;;;;;;;6.28;4.45;;;;;;;-143.85;100.00;70650.75;5115669;28;20051;-84
2022/10/20 03:00:54;;;;;;;8.50;4.53;;;;;;;-143.85;100.00;70650.75;5115518;28;20055;-83
2022/10/20 03:03:20;;;;;;;7.45;4.80;;;;;;;-143.85;100.00;70650.75;5115249;28;20387;-85
2022/10/20 03:05:46;;;;;;;8.88;4.55;;;;;;;-143.85;100.00;70650.75;5114648;28;20040;-85
2022/10/20 03:08:12;;;;;;;7.38;4.07;;;;;;;-143.85;100.00;70650.75;5106424;28;20028;-85
2022/10/20 03:10:38;;;;;;;7.05;3.95;;;;;;;-143.85;100.00;70650.75;5095336;28;20038;-87
2022/10/20 03:13:05;;;;;;;7.63;4.18;;;;;;;-143.85;100.00;70650.75;5099203;28;20111;-86
2022/10/20 03:15:31;;;;;;;6.75;3.72;;;;;;;-143.85;100.00;70650.75;5095077;28;20039;-85
2022/10/20 03:17:56;;;;;;;8.55;3.80;;;;;;;-143.85;100.00;70650.75;5105945;28;20024;-85
2022/10/20 03:20:22;;;;;;;6.43;4.22;;;;;;;-143.85;100.00;70650.75;5103512;28;20035;-86
2022/10/20 03:22:47;;;;;;;8.65;4.35;;;;;;;-143.85;100.00;70650.75;5094824;28;20498;-86
2022/10/20 03:25:13;;;;;;;8.52;4.70;;;;;;;-143.85;100.00;70650.75;5094848;28;20129;-85
2022/10/20 03:27:38;;;;;;;6.70;3.80;;;;;;;-143.85;100.00;70650.75;5094746;28;20032;-86
2022/10/20 03:30:04;;;;;;;6.88;3.95;;;;;;;-143.85;100.00;70650.75;5099090;28;20490;-85
2022/10/20 03:32:30;;;;;;;11.02;4.68;;;;;;;-143.85;100.00;70650.75;5108185;28;20028;-85
2022/10/20 03:34:56;;;;;;;6.28;3.92;;;;;;;-143.85;100.00;70650.75;5116147;28;20024;-86
2022/10/20 03:37:21;;;;;;;5.22;4.38;;;;;;;-143.85;100.00;70650.75;5115074;28;20449;-85
2022/10/20 03:39:47;;;;;;;7.70;3.97;;;;;;;-143.85;100.00;70650.75;5115250;28;20074;-86
2022/10/20 03:42:13;;;;;;;6.70;3.53;;;;;;;-143.85;100.00;70650.75;5095272;28;20027;-86
2022/10/20 03:44:38;;;;;;;6.20;3.83;;;;;;;-143.85;100.00;70650.75;5094481;28;20028;-85
2022/10/20 03:47:04;;;;;;;4.88;3.55;;;;;;;-143.85;100.00;70650.75;5112464;28;20020;-85
2022/10/20 03:49:31;;;;;;;6.03;4.30;;;;;;;-143.85;100.00;70650.75;5105591;28;20510;-85
2022/10/20 03:51:57;;;;;;;8.75;4.57;;;;;;;-143.85;100.00;70650.75;5108654;28;20111;-85
2022/10/20 03:54:23;;;;;;;16.55;3.67;;;;;;;-143.85;100.00;70650.75;5098655;28;20097;-86
2022/10/20 03:56:48;;;;;;;6.85;4.00;;;;;;;-143.85;100.00;70650.75;5108341;28;20020;-86
2022/10/20 03:59:13;;;;;;;6.30;3.78;;;;;;;-143.85;100.00;70650.75;5108814;28;20051;-85
2022/10/20 04:01:43;;;;;;;9.07;4.40;;;;;;;-143.85;100.00;70650.75;5094183;28;20510;-86
2022/10/20 04:04:08;;;;;;;13.00;4.82;;;;;;;-143.85;100.00;70650.75;5101492;28;20044;-85
2022/10/20 04:06:33;;;;;;;8.57;4.38;;;;;;;-143.85;100.00;70650.75;5104449;28;20407;-85
2022/10/20 04:08:59;;;;;;;5.85;4.00;;;;;;;-143.85;100.00;70650.75;5114724;28;20028;-85
2022/10/20 04:11:25;;;;;;;6.97;3.88;;;;;;;-143.85;100.00;70650.75;5106715;28;20027;-86
2022/10/20 04:13:51;;;;;;;8.25;4.72;;;;;;;-143.85;100.00;70650.75;5108189;28;20034;-85
2022/10/20 04:16:17;;;;;;;7.95;3.75;;;;;;;-143.85;100.00;70650.75;5114342;28;20403;-85
2022/10/20 04:18:42;;;;;;;5.47;4.05;;;;;;;-143.85;100.00;70650.75;5114376;28;20042;-84
2022/10/20 04:21:08;;;;;;;6.97;4.20;;;;;;;-143.85;100.00;70650.75;5110905;28;20073;-85
2022/10/20 04:23:33;;;;;;;9.63;5.35;;;;;;;-143.85;100.00;70650.75;5093818;28;20039;-85
2022/10/20 04:25:59;;;;;;;21.40;5.53;;;;;;;-143.85;100.00;70650.75;5106339;28;20042;-84
2022/10/20 04:28:24;;;;;;;11.20;5.45;;;;;;;-143.85;100.00;70650.75;5098216;28;20056;-85
2022/10/20 04:30:49;;;;;;;6.57;4.22;;;;;;;-143.85;100.00;70650.75;5108957;28;20027;-85
2022/10/20 04:33:15;;;;;;;14.05;5.00;;;;;;;-143.85;100.00;70650.75;5108500;28;20028;-85
2022/10/20 04:35:40;;;;;;;12.90;5.55;;;;;;;-143.85;100.00;70650.75;5095046;28;20035;-86
2022/10/20 04:38:06;;;;;;;6.57;3.97;;;;;;;-143.85;100.00;70650.75;5108335;28;20537;-86
2022/10/20 04:40:32;;;;;;;7.22;4.15;;;;;;;-143.85;100.00;70650.75;5113446;28;20164;-87
2022/10/20 04:42:59;;;;;;;6.60;4.00;;;;;;;-143.85;100.00;70650.75;5113662;28;20084;-86
2022/10/20 04:45:24;;;;;;;5.03;3.85;;;;;;;-143.85;100.00;70650.75;5109915;28;20472;-86
2022/10/20 04:47:50;;;;;;;13.75;5.10;;;;;;;-143.85;100.00;70650.75;5093332;28;20038;-87
2022/10/20 04:50:15;;;;;;;4.32;3.05;;;;;;;-143.85;100.00;70650.75;5105771;28;20024;-87
2022/10/20 04:52:41;;;;;;;10.05;3.67;;;;;;;-143.85;100.00;70650.75;5093679;28;20051;-87
2022/10/20 04:55:07;;;;;;;4.13;3.17;;;;;;;-143.85;100.00;70650.75;5093451;28;20107;-87
2022/10/20 04:57:32;;;;;;;7.85;3.53;;;;;;;-143.85;100.00;70650.75;5112867;28;20066;-86
2022/10/20 04:59:58;;;;;;;6.97;3.38;;;;;;;-143.85;100.00;70650.75;5113081;28;20031;-87
2022/10/20 05:02:23;;;;;;;6.13;3.38;;;;;;;-143.85;100.00;70650.75;5113410;28;20027;-87
2022/10/20 05:04:49;;;;;;;7.00;4.07;;;;;;;-143.85;100.00;70650.75;5103792;28;20046;-87
2022/10/20 05:07:14;;;;;;;6.60;4.43;;;;;;;-143.85;100.00;70650.75;5093008;28;20024;-87
2022/10/20 05:09:40;;;;;;;8.38;3.83;;;;;;;-143.85;100.00;70650.75;5092293;28;20032;-86
2022/10/20 05:12:05;;;;;;;6.00;3.28;;;;;;;-143.85;100.00;70650.75;5103145;28;20024;-87
2022/10/20 05:14:31;;;;;;;5.97;3.08;;;;;;;-143.85;100.00;70650.75;5096425;28;20027;-87
2022/10/20 05:16:56;;;;;;;6.00;3.85;;;;;;;-143.85;100.00;70650.75;5113746;28;20024;-87
2022/10/20 05:19:22;;;;;;;3.97;3.15;;;;;;;-143.85;100.00;70650.75;5112944;28;20023;-83
2022/10/20 05:21:47;;;;;;;5.60;3.90;;;;;;;-143.85;100.00;70650.75;5112326;28;20169;-80
2022/10/20 05:24:15;;;;;;;5.25;3.20;;;;;;;-143.85;100.00;70650.75;5096946;28;20054;-81
2022/10/20 05:26:41;;;;;;;6.95;4.43;;;;;;;-143.85;100.00;70650.75;5091755;28;20093;-83
2022/10/20 05:29:09;;;;;;;8.02;3.75;;;;;;;-143.85;100.00;70650.75;5091945;28;20032;-82
2022/10/20 05:31:40;;;;;;;5.57;3.85;;;;;;;-143.85;100.00;70650.75;5091797;28;20038;-83
2022/10/20 05:34:05;;;;;;;5.45;2.95;;;;;;;-143.85;100.00;70650.75;5104711;28;20036;-82
2022/10/20 05:36:31;;;;;;;9.18;3.42;;;;;;;-143.85;100.00;70650.75;5111901;28;20084;-83
2022/10/20 05:38:56;;;;;;;5.32;3.20;;;;;;;-143.85;100.00;70650.75;5108935;28;20124;-84
2022/10/20 05:41:25;;;;;;;8.13;3.05;;;;;;;-143.85;100.00;70650.75;5121604;27;20471;-83
2022/10/20 05:43:58;;;;;;;7.10;4.55;;;;;;;-143.85;100.00;70650.75;5076059;28;20427;-83
2022/10/20 05:46:29;;;;;;;6.35;3.50;;;;;;;-143.85;100.00;70650.75;5101119;28;20039;-84
2022/10/20 05:48:57;;;;;;;7.78;3.70;;;;;;;-143.85;100.00;70650.75;5101009;28;20027;-83
2022/10/20 05:51:25;;;;;;;6.25;3.58;;;;;;;-143.85;100.00;70650.75;5112071;28;20020;-83
2022/10/20 05:53:53;;;;;;;24.33;3.42;;;;;;;-143.85;100.00;70650.75;5105927;28;20046;-84
2022/10/20 05:56:19;;;;;;;4.28;3.22;;;;;;;-143.85;100.00;70650.75;5111753;28;20091;-84
2022/10/20 05:58:48;;;;;;;4.28;3.20;;;;;;;-143.85;100.00;70650.75;5113054;28;20027;-85
2022/10/20 06:01:22;;;;;;;4.40;3.00;;;;;;;-143.85;100.00;70650.75;5126354;28;20023;-85
2022/10/20 06:03:52;;;;;;;4.85;2.80;;;;;;;-143.85;100.00;70650.75;5114664;28;20034;-83
2022/10/20 06:06:20;;;;;;;4.80;2.58;;;;;;;-143.85;100.00;70650.75;5094377;28;20089;-83
2022/10/20 06:08:46;;;;;;;6.55;2.63;;;;;;;-143.85;100.00;70650.75;5091814;28;20028;-84
2022/10/20 06:11:13;;;;;;;5.60;3.03;;;;;;;-143.85;100.00;70650.75;5091486;28;20423;-82
2022/10/20 06:13:39;;;;;;;4.05;2.67;;;;;;;-143.85;100.00;70650.75;5091278;28;20024;-82
2022/10/20 06:16:10;;;;;;;2.80;2.30;;;;;;;-143.85;100.00;70650.75;5108984;28;20115;-81
2022/10/20 06:18:38;;;;;;;3.42;2.50;;;;;;;-143.85;100.00;70650.75;5103906;28;20483;-80
2022/10/20 06:21:06;;;;;;;5.30;2.80;;;;;;;-143.85;100.00;70650.75;5092638;28;20472;-82
2022/10/20 06:23:32;;;;;;;2.88;2.33;;;;;;;-143.85;100.00;70650.75;5115513;28;20031;-84
2022/10/20 06:26:06;;;;;;;2.53;2.22;;;;;;;-143.85;100.00;70650.75;5116112;28;20487;-91
2022/10/20 06:28:34;;;;;;;7.13;2.72;;;;;;;-143.85;100.00;70650.75;5115494;28;20142;-89
2022/10/20 06:31:00;;;;;;;3.58;2.47;;;;;;;-143.85;100.00;70650.75;5115672;28;20118;-89
2022/10/20 06:33:29;;;;;;;5.88;2.58;;;;;;;-143.85;100.00;70650.75;5116069;28;20066;-88
2022/10/20 06:36:00;;;;;;;4.25;2.92;;;;;;;-143.85;100.00;70650.75;5106209;28;20476;-89
2022/10/20 06:38:26;;;;;;;4.05;2.33;;;;;;;-143.85;100.00;70650.75;5112483;28;20160;-87
2022/10/20 06:40:51;;;;;;;2.78;2.22;;;;;;;-143.85;100.00;70650.75;5095621;28;20117;-88
2022/10/20 06:43:17;;;;;;;4.63;2.90;;;;;;;-143.85;100.00;70650.75;5111319;28;20062;-88
2022/10/20 06:45:42;;;;;;;5.28;3.05;;;;;;;-143.85;100.00;70650.75;5115904;28;20394;-89
2022/10/20 06:48:07;;;;;;;3.78;2.20;;;;;;;-143.85;100.00;70650.75;5103891;28;20028;-89
2022/10/20 06:50:34;;;;;;;2.78;2.33;;;;;;;-143.85;100.00;70650.75;5110459;28;20032;-86
2022/10/20 06:52:59;;;;;;;3.28;2.10;;;;;;;-143.85;100.00;70650.75;5106104;28;20028;-88
2022/10/20 06:55:24;;;;;;;3.53;2.60;;;;;;;-143.85;100.00;70650.75;5099703;28;20051;-86
2022/10/20 06:57:50;;;;;;;2.47;2.17;;;;;;;-143.85;100.00;70650.75;5106060;28;20031;-87
2022/10/20 07:00:15;;;;;;;3.78;1.73;;;;;;;-143.85;100.00;70650.75;5116305;28;20024;-88
2022/10/20 07:02:41;;;;;;;3.60;2.10;;;;;;;-143.85;100.00;70650.75;5116263;28;20435;-88
2022/10/20 07:05:06;;;;;;;1.75;1.55;;;;;;;-143.85;100.00;70650.75;5115414;28;20048;-86
2022/10/20 07:07:32;;;;;;;3.78;1.77;;;;;;;-143.85;100.00;70650.75;5115744;28;20111;-86
2022/10/20 07:09:58;;;;;;;4.05;2.10;;;;;;;-143.85;100.00;70650.75;5116859;28;20487;-86
2022/10/20 07:12:23;;;;;;;2.85;2.22;;;;;;;-143.85;100.00;70650.75;5115576;28;20548;-86
2022/10/20 07:14:49;;;;;;;2.28;1.92;;;;;;;-143.85;100.00;70650.75;5115663;28;20028;-86
2022/10/20 07:17:14;;;;;;;2.30;2.10;;;;;;;-143.85;100.00;70650.75;5101585;28;20028;-87
2022/10/20 07:19:39;;;;;;;2.38;1.60;;;;;;;-143.85;100.00;70650.75;5100849;28;20054;-86
2022/10/20 07:22:05;;;;;;;3.22;2.13;;;;;;;-143.85;100.00;70650.75;5115348;28;20023;-88
2022/10/20 07:24:30;;;;;;;3.75;2.10;;;;;;;-143.85;100.00;70650.75;5097305;28;20032;-88
2022/10/20 07:26:56;;;;;;;3.38;2.00;;;;;;;-143.85;100.00;70650.75;5095823;28;20050;-85
2022/10/20 07:29:22;;;;;;;2.65;1.98;;;;;;;-143.85;100.00;70650.75;5100417;28;20027;-86
2022/10/20 07:31:47;;;;;;;3.13;1.80;;;;;;;-143.85;100.00;70650.75;5095325;28;20028;-86
2022/10/20 07:34:15;;;;;;;2.78;1.70;;;;;;;-143.85;100.00;70650.75;5108213;28;20031;-87
2022/10/20 07:36:42;;;;;;;3.75;1.70;;;;;;;-143.85;100.00;70650.75;5115042;28;20035;-88
2022/10/20 07:39:09;;;;;;;5.90;2.10;;;;;;;-143.85;100.00;70650.75;5107507;28;20038;-86
2022/10/20 07:41:36;;;;;;;3.10;2.07;;;;;;;-143.85;100.00;70650.75;5115319;28;20028;-89
2022/10/20 07:44:03;;;;;;;2.13;1.90;;;;;;;-143.85;100.00;70650.75;5116607;28;20034;-90
2022/10/20 07:46:28;;;;;;;2.83;2.00;;;;;;;-143.85;100.00;70650.75;5115067;28;20293;-87
2022/10/20 07:48:54;;;;;;;2.80;1.75;;;;;;;-143.85;100.00;70650.75;5100789;28;20050;-86
2022/10/20 07:51:33;;;;;;;3.95;2.03;;;;;;;-143.85;100.00;70650.75;5104615;28;20507;-88
2022/10/20 07:54:00;;;;;;;1.67;1.58;;;;;;;-143.85;100.00;70650.75;5113199;28;20024;-90
2022/10/20 07:56:38;;;;;;;3.80;1.67;;;;;;;-143.85;100.00;70650.75;5114971;28;20039;-88
2022/10/20 07:59:05;;;;;;;3.60;1.48;;;;;;;-143.85;100.00;70650.75;5096629;28;20028;-88
2022/10/20 08:01:30;;;;;;;2.55;1.90;;;;;;;-143.85;100.00;70650.75;5096667;28;20024;-90
2022/10/20 08:03:56;;;;;;;1.60;1.50;;;;;;;-143.85;100.00;70650.75;5098072;28;20497;-88
2022/10/20 08:06:21;;;;;;;2.45;1.65;;;;;;;-143.85;100.00;70650.75;5099628;28;20020;-88
2022/10/20 08:08:47;;;;;;;1.95;1.25;;;;;;;-143.85;100.00;70650.75;5108923;28;20039;-89
2022/10/20 08:11:13;;;;;;;2.55;1.70;;;;;;;-143.85;100.00;70650.75;5094529;28;20035;-87
2022/10/20 08:13:39;;;;;;;5.65;1.88;;;;;;;-143.85;100.00;70650.75;5107872;28;20027;-87
2022/10/20 08:16:06;;;;;;;2.15;1.95;;;;;;;-143.85;100.00;70650.75;5114594;28;20024;-89
2022/10/20 08:18:32;;;;;;;6.28;3.40;;;;;;;-143.85;100.00;70650.75;5114650;28;20110;-89
2022/10/20 08:21:14;;;;;;;2.10;1.67;;;;;;;-143.85;100.00;70650.75;5114503;28;20030;-88
2022/10/20 08:23:45;;;;;;;1.42;1.33;;;;;;;-143.85;100.00;70650.75;5114734;28;20035;-87
2022/10/20 08:26:15;;;;;;;1.88;1.33;;;;;;;-143.85;100.00;70650.75;5101222;28;20056;-88
2022/10/20 08:28:40;;;;;;;2.38;1.88;;;;;;;-143.85;100.00;70650.75;5097733;28;20040;-89
2022/10/20 08:31:06;;;;;;;3.33;2.33;;;;;;;-143.85;100.00;70650.75;5093936;28;20030;-86
2022/10/20 08:33:33;;;;;;;2.25;2.03;;;;;;;-143.85;100.00;70650.75;5095017;28;20472;-88
2022/10/20 08:36:04;;;;;;;2.03;1.73;;;;;;;-143.85;100.00;70650.75;5094906;28;20491;-92
2022/10/20 08:38:29;;;;;;;1.55;1.38;;;;;;;-143.85;100.00;70650.75;5114136;28;20391;-89
2022/10/20 08:40:56;;;;;;;2.33;1.73;;;;;;;-143.85;100.00;70650.75;5113913;28;20023;-86
2022/10/20 08:43:22;;;;;;;1.83;1.73;;;;;;;-143.85;100.00;70650.75;5099843;28;20055;-85
2022/10/20 08:45:47;;;;;;;1.88;1.33;;;;;;;-143.85;100.00;70650.75;5092602;28;20508;-84
2022/10/20 08:48:21;;;;;;;6.53;1.98;;;;;;;-143.85;100.00;70650.75;5108149;28;20058;-86
2022/10/20 08:50:49;;;;;;;5.25;1.65;;;;;;;-143.85;100.00;70650.75;5117031;27;20050;-89
2022/10/20 08:53:17;;;;;;;3.05;1.90;;;;;;;-143.85;100.00;70650.75;5114619;28;20036;-88
2022/10/20 08:55:43;;;;;;;;;;;;;;;-143.85;100.00;70650.75;5113402;28;20027;-89
2022/10/20 08:58:14;;;;;;;2.03;1.60;;;;;;;-143.85;100.00;70650.75;5113654;28;19915;-87
2022/10/20 09:00:41;;;;;;;3.88;1.60;;;;;;;-143.85;100.00;70650.75;5113624;28;20752;-88
2022/10/20 09:03:22;;;;;;;7.47;2.17;;;;;;;-143.85;100.00;70650.75;5113751;28;20023;-88
2022/10/20 09:06:13;;;;;;;2.00;1.75;;;;;;;-143.85;100.00;70650.75;5112851;28;20104;-86
2022/10/20 09:08:40;;;;;;;3.33;2.08;;;;;;;-143.85;100.00;70650.75;5099362;28;20039;-87
2022/10/20 09:11:10;;;;;;;2.97;1.67;;;;;;;-143.85;100.00;70650.75;5116012;27;20028;-87
2022/10/20 09:13:36;;;;;;;1.98;1.50;;;;;;;-143.85;100.00;70650.75;5112984;28;20080;-82
2022/10/20 09:16:19;;;;;;;3.15;2.22;;;;;;;-143.85;100.00;70650.75;5102965;28;20082;-85
2022/10/20 09:18:51;;;;;;;2.08;1.70;;;;;;;-143.85;100.00;70650.75;5092892;28;20494;-86
2022/10/20 09:21:23;;;;;;;3.38;2.00;;;;;;;-143.85;100.00;70650.75;5115015;28;20095;-85
2022/10/20 09:23:55;;;;;;;2.10;1.90;;;;;;;-143.85;100.00;70650.75;5130166;28;20035;-87
2022/10/20 09:26:32;;;;;;;2.67;1.65;;;;;;;-143.85;100.00;70650.75;5116913;28;20040;-86
2022/10/20 09:29:10;;;;;;;2.70;1.52;;;;;;;-143.85;100.00;70650.75;5092737;28;20020;-87
2022/10/20 09:31:55;;;;;;;2.38;1.65;;;;;;;-143.85;100.00;70650.75;5106422;28;20089;-86
2022/10/20 09:34:25;;;;;;;3.72;2.05;;;;;;;-143.85;100.00;70650.75;5104976;28;20084;-86
2022/10/20 09:37:12;;;;;;;1.80;1.27;;;;;;;-143.85;100.00;70650.75;5092387;28;20035;-86
2022/10/20 09:39:46;;;;;;;2.95;1.70;;;;;;;-143.85;100.00;70650.75;5101779;28;20376;-86
2022/10/20 09:42:21;;;;;;;1.65;1.55;;;;;;;-143.85;100.00;70650.75;5111969;28;20028;-86
2022/10/20 09:44:46;;;;;;;4.90;1.55;;;;;;;-143.85;100.00;70650.75;5113439;28;20027;-85
2022/10/20 09:47:14;;;;;;;2.70;1.80;;;;;;;-143.85;100.00;70650.75;5113292;28;20019;-87
2022/10/20 09:49:41;;;;;;;;;;;;;;;-143.85;100.00;70650.75;5102866;28;20092;-87
2022/10/20 09:52:29;;;;;;;1.67;1.20;;;;;;;-143.85;100.00;70650.75;5095223;28;20379;-84
2022/10/20 09:55:00;;;;;;;2.72;1.73;;;;;;;-143.85;100.00;70650.75;5113075;28;20032;-86
2022/10/20 09:57:26;;;;;;;2.80;1.42;;;;;;;-143.85;100.00;70650.75;5094035;28;20078;-87
2022/10/20 09:59:53;;;;;;;2.20;1.88;;;;;;;-143.85;100.00;70650.75;5111256;28;20539;-87
2022/10/20 10:02:19;;;;;;;3.13;1.83;;;;;;;-143.85;100.00;70650.75;5110038;28;20040;-85
2022/10/20 10:04:47;;;;;;;2.05;1.17;;;;;;;-143.85;100.00;70650.75;5092798;28;20105;-85
2022/10/20 10:07:24;;;;;;;2.08;1.63;;;;;;;-143.85;100.00;70650.75;5075866;28;20070;-86
2022/10/20 10:10:04;;;;;;;2.40;1.73;;;;;;;-143.85;100.00;70650.75;5109268;28;20059;-89
2022/10/20 10:12:31;;;;;;;2.60;1.40;;;;;;;-143.85;100.00;70650.75;5106301;28;20080;-86
2022/10/20 10:15:10;;;;;;;3.47;1.77;;;;;;;-143.85;100.00;70650.75;5100677;28;20122;-86
2022/10/20 10:17:39;;;;;;;2.10;1.40;;;;;;;-143.85;100.00;70650.75;5110719;28;20049;-83
2022/10/20 10:20:11;;;;;;;2.15;1.95;;;;;;;-143.85;100.00;70650.75;5101024;28;20126;-86
2022/10/20 10:22:38;;;;;;;3.17;1.70;;;;;;;-143.85;100.00;70650.75;5112676;28;20024;-82
2022/10/20 10:25:06;;;;;;;2.27;1.83;;;;;;;-143.85;100.00;70650.75;5112514;28;20467;-83
2022/10/20 10:27:34;;;;;;;1.75;1.65;;;;;;;-143.85;100.00;70650.75;5112578;28;20070;-85
2022/10/20 10:30:27;;;;;;;3.70;1.95;;;;;;;-143.85;100.00;70650.75;5107860;28;20040;-84
2022/10/20 10:32:53;;;;;;;3.60;2.03;;;;;;;-143.85;100.00;70650.75;5107015;28;20015;-83
2022/10/20 10:35:26;;;;;;;2.70;1.73;;;;;;;-143.85;100.00;70650.75;5105999;28;20028;-85
2022/10/20 10:37:52;;;;;;;11.60;2.22;;;;;;;-143.85;100.00;70650.75;5106101;28;20027;-82
2022/10/20 10:40:31;;;;;;;1.85;1.73;;;;;;;-143.85;100.00;70650.75;5107880;28;20487;-88
2022/10/20 10:43:29;;;;;;;2.70;1.52;;;;;;;-143.85;100.00;70650.75;5091375;28;20530;-86
2022/10/20 10:46:03;;;;;;;;;;;;;;;-143.85;100.00;70650.75;5092555;28;20024;-87
2022/10/20 10:48:46;;;;;;;2.13;1.92;;;;;;;-143.85;100.00;70650.75;5102371;28;19912;-90
2022/10/20 10:51:38;;;;;;;4.10;1.88;;;;;;;-143.85;100.00;70650.75;5112497;28;20483;-88
2022/10/20 10:54:21;;;;;;;5.63;2.53;;;;;;;-143.85;100.00;70650.75;5127569;28;20032;-88
2022/10/20 10:56:54;;;;;;;4.45;2.00;;;;;;;-143.85;100.00;70650.75;5112165;28;20497;-85
2022/10/20 10:59:29;;;;;;;2.47;1.90;;;;;;;-143.85;100.00;70650.75;5114716;28;20092;-84
2022/10/20 11:01:54;;;;;;;2.75;2.00;;;;;;;-143.85;100.00;70650.75;5112136;28;20019;-88
2022/10/20 11:04:41;;;;;;;2.33;1.73;;;;;;;-143.85;100.00;70650.75;5099910;28;20040;-87
2022/10/20 11:07:20;;;;;;;2.88;2.05;;;;;;;-143.85;100.00;70650.75;5108989;28;20036;-86
2022/10/20 11:10:01;;;;;;;2.45;1.75;;;;;;;-143.85;100.00;70650.75;5130998;27;20043;-87
2022/10/20 11:12:43;;;;;;;3.95;1.63;;;;;;;-143.85;100.00;70650.75;5115895;28;20031;-87
2022/10/20 11:15:34;;;;;;;1.73;1.63;;;;;;;-143.85;100.00;70650.75;5115221;28;20036;-86
2022/10/20 11:18:00;;;;;;;1.52;1.42;;;;;;;-143.85;100.00;70650.75;5115018;28;20027;-88
2022/10/20 11:20:30;;;;;;;2.70;1.88;;;;;;;-143.85;100.00;70650.75;5114644;28;20490;-87